Time;durP1;ratioP1;P1;durP2;ratioP2;P2;SDS_P1;SDS_P2;PMS_P1;PMS_P2;Temp;Humidity;BMP_temperature;BMP_pressure;BME280_temperature;BME280_humidity;BME280_pressure;Samples;Min_cycle;Max_cycle;Signal;HPM_P1;HPM_P2
2022/09/10 00:01:58;;;;;;;;;;;;;;;21.94;77.33;96825.81;587102;241;65093;-73
2022/09/10 00:04:26;;;;;;;;;;;;;;;21.94;77.42;96819.67;587144;241;65041;-73
2022/09/10 00:06:54;;;;;;;;;;;;;;;21.93;77.34;96818.88;587122;241;67064;-73
2022/09/10 00:09:22;;;;;;;;;;;;;;;21.94;77.27;96825.81;587132;241;65074;-73
2022/09/10 00:11:49;;;;;;;;;;;;;;;21.93;77.35;96813.53;587126;241;65089;-73
2022/09/10 00:14:22;;;;;;;;;;;;;;;21.93;77.33;96821.55;587120;241;67151;-73
2022/09/10 00:16:49;;;;;;;;;;;;;;;21.93;77.33;96824.23;587108;241;62885;-73
2022/09/10 00:19:18;;;;;;;;;;;;;;;21.93;77.37;96813.53;586384;241;64969;-73
2022/09/10 00:21:45;;;;;;;;;;;;;;;21.93;77.24;96813.53;585210;242;67135;-73
2022/09/10 00:24:13;;;;;;;;;;;;;;;21.93;77.24;96812.70;585179;242;65034;-73
2022/09/10 00:26:41;;;;;;;;;;;;;;;21.94;77.32;96811.64;585220;242;67317;-73
2022/09/10 00:29:10;;;;;;;;;;;;;;;21.92;77.38;96806.56;585198;242;65343;-73
2022/09/10 00:31:37;;;;;;;;;;;;;;;21.93;77.20;96805.50;585252;242;65120;-73
2022/09/10 00:34:05;;;;;;;;;;;;;;;21.93;77.27;96812.70;585208;242;67290;-73
2022/09/10 00:36:39;;;;;;;;;;;;;;;21.94;77.38;96819.67;585231;242;64990;-73
2022/09/10 00:39:08;;;;;;;;;;;;;;;21.94;77.44;96814.32;580152;242;66830;-73
2022/09/10 00:41:37;;;;;;;;;;;;;;;21.94;77.24;96819.67;585129;242;67224;-73
2022/09/10 00:44:06;;;;;;;;;;;;;;;21.92;77.22;96805.77;585251;242;65044;-73
2022/09/10 00:46:35;;;;;;;;;;;;;;;21.93;77.33;96812.70;585238;242;65101;-73
2022/09/10 00:49:04;;;;;;;;;;;;;;;21.93;77.48;96815.37;585206;242;64774;-73
2022/09/10 00:51:33;;;;;;;;;;;;;;;21.93;77.36;96810.85;585067;242;65108;-73
2022/09/10 00:54:02;;;;;;;;;;;;;;;21.93;77.45;96818.88;585177;242;62976;-73
2022/09/10 00:56:31;;;;;;;;;;;;;;;21.93;77.37;96810.85;585222;242;67615;-73
2022/09/10 00:58:58;;;;;;;;;;;;;;;21.93;77.29;96815.37;585247;242;65035;-73
2022/09/10 01:01:26;;;;;;;;;;;;;;;21.93;77.60;96804.68;585203;242;63029;-73
2022/09/10 01:03:54;;;;;;;;;;;;;;;21.93;77.42;96793.98;585223;242;67260;-73
2022/09/10 01:06:22;;;;;;;;;;;;;;;21.93;77.55;96802.83;585219;242;65018;-73
2022/09/10 01:08:50;;;;;;;;;;;;;;;21.93;77.38;96796.66;585191;242;65048;-73
2022/09/10 01:11:19;;;;;;;;;;;;;;;21.93;77.45;96792.13;585267;242;65108;-73
2022/09/10 01:13:51;;;;;;;;;;;;;;;21.93;77.30;96791.30;585201;242;67089;-73
2022/09/10 01:16:26;;;;;;;;;;;;;;;21.93;77.37;96786.77;584911;242;63105;-73
2022/09/10 01:18:59;;;;;;;;;;;;;;;21.93;77.50;96786.77;585158;242;65099;-73
2022/09/10 01:21:45;;;;;;;;;;;;;;;21.93;77.62;96792.13;584865;242;66872;-73
2022/09/10 01:24:31;;;;;;;;;;;;;;;21.93;77.74;96796.66;585212;242;63045;-73
2022/09/10 01:27:17;;;;;;;;;;;;;;;21.92;77.76;96789.72;585210;242;67375;-73
2022/09/10 01:29:46;;;;;;;;;;;;;;;21.94;77.72;96795.59;585232;242;64974;-73
2022/09/10 01:32:15;;;;;;;;;;;;;;;21.92;77.54;96793.19;585077;242;65318;-73
2022/09/10 01:34:48;;;;;;;;;;;;;;;21.92;77.52;96793.19;585244;241;49479;-73
2022/09/10 01:37:20;;;;;;;;;;;;;;;21.93;77.97;96799.33;585132;242;64648;-73
2022/09/10 01:39:48;;;;;;;;;;;;;;;21.93;77.67;96785.95;585192;242;65124;-73
2022/09/10 01:42:16;;;;;;;;;;;;;;;21.93;77.77;96797.47;585193;242;67270;-73
2022/09/10 01:44:47;;;;;;;;;;;;;;;21.93;77.69;96794.80;585223;242;65324;-73
2022/09/10 01:47:24;;;;;;;;;;;;;;;21.93;77.85;96792.13;585195;242;45241;-73
2022/09/10 01:50:05;;;;;;;;;;;;;;;21.93;77.86;96791.30;585204;242;67270;-73
2022/09/10 01:52:41;;;;;;;;;;;;;;;21.92;77.79;96784.36;585164;242;66864;-73
2022/09/10 01:55:13;;;;;;;;;;;;;;;21.92;77.71;96773.66;578909;242;62921;-73
2022/09/10 01:57:49;;;;;;;;;;;;;;;21.93;77.76;96785.95;585157;242;47470;-73
2022/09/10 02:00:20;;;;;;;;;;;;;;;21.93;77.85;96778.74;585236;242;67108;-74
2022/09/10 02:02:49;;;;;;;;;;;;;;;21.92;77.99;96770.98;585260;242;65083;-74
2022/09/10 02:05:19;;;;;;;;;;;;;;;21.92;78.01;96771.78;585176;242;71673;-74
2022/09/10 02:07:50;;;;;;;;;;;;;;;21.91;78.12;96775.55;585117;242;47004;-74
2022/09/10 02:10:19;;;;;;;;;;;;;;;21.92;77.99;96781.69;585177;242;64978;-73
2022/09/10 02:12:46;;;;;;;;;;;;;;;21.93;77.94;96776.07;585209;242;65301;-74
2022/09/10 02:15:23;;;;;;;;;;;;;;;21.92;78.21;96771.78;582766;242;46833;-74
2022/09/10 02:17:53;;;;;;;;;;;;;;;21.93;78.07;96781.42;585412;239;45594;-74
2022/09/10 02:20:21;;;;;;;;;;;;;;;21.91;77.68;96782.78;585187;242;67275;-73
2022/09/10 02:22:51;;;;;;;;;;;;;;;21.91;77.92;96778.22;585230;241;46664;-73
2022/09/10 02:25:19;;;;;;;;;;;;;;;21.93;77.73;96775.25;585142;242;63066;-74
2022/09/10 02:27:47;;;;;;;;;;;;;;;21.92;77.90;96771.78;585234;242;66955;-73
2022/09/10 02:30:15;;;;;;;;;;;;;;;21.91;77.65;96770.20;585260;242;64809;-74
2022/09/10 02:32:43;;;;;;;;;;;;;;;21.91;77.66;96772.88;585214;242;65178;-74
2022/09/10 02:35:14;;;;;;;;;;;;;;;21.91;77.73;96772.88;585207;242;64667;-74
2022/09/10 02:37:43;;;;;;;;;;;;;;;21.91;77.74;96772.88;585214;242;46798;-73
2022/09/10 02:40:11;;;;;;;;;;;;;;;21.90;77.72;96763.23;585209;242;65061;-73
2022/09/10 02:42:39;;;;;;;;;;;;;;;21.91;77.61;96758.70;585253;242;66859;-73
2022/09/10 02:45:07;;;;;;;;;;;;;;;21.91;77.54;96762.17;585225;242;64843;-73
2022/09/10 02:47:34;;;;;;;;;;;;;;;21.92;77.39;96758.41;585224;242;65089;-73
2022/09/10 02:50:02;;;;;;;;;;;;;;;21.92;77.45;96754.94;585203;242;66970;-73
2022/09/10 02:52:29;;;;;;;;;;;;;;;21.91;77.54;96761.37;585201;242;64662;-73
2022/09/10 02:54:57;;;;;;;;;;;;;;;21.93;77.68;96773.39;585222;242;65080;-73
2022/09/10 02:57:26;;;;;;;;;;;;;;;21.91;77.66;96761.37;585195;242;65042;-73
2022/09/10 02:59:55;;;;;;;;;;;;;;;21.91;77.70;96766.73;585183;242;65364;-73
2022/09/10 03:02:23;;;;;;;;;;;;;;;21.92;77.91;96766.43;585177;242;62859;-73
2022/09/10 03:04:50;;;;;;;;;;;;;;;21.93;77.89;96770.72;585206;242;67292;-74
2022/09/10 03:07:19;;;;;;;;;;;;;;;21.92;77.95;96769.10;585229;242;67018;-73
2022/09/10 03:09:47;;;;;;;;;;;;;;;21.91;77.89;96766.73;585246;242;65108;-73
2022/09/10 03:12:15;;;;;;;;;;;;;;;21.91;78.01;96767.52;585196;242;67424;-74
2022/09/10 03:14:42;;;;;;;;;;;;;;;21.91;77.85;96762.17;585184;242;64847;-74
2022/09/10 03:17:10;;;;;;;;;;;;;;;21.90;77.96;96755.20;585204;242;65045;-74
2022/09/10 03:19:38;;;;;;;;;;;;;;;21.91;78.03;96753.35;586147;241;66960;-73
2022/09/10 03:22:07;;;;;;;;;;;;;;;21.90;78.07;96749.85;587159;241;64996;-74
2022/09/10 03:24:36;;;;;;;;;;;;;;;21.91;78.02;96751.47;587104;241;65138;-74
2022/09/10 03:27:05;;;;;;;;;;;;;;;21.91;78.00;96756.82;587124;241;67281;-74
2022/09/10 03:29:33;;;;;;;;;;;;;;;21.91;77.96;96758.70;587144;241;67082;-73
2022/09/10 03:32:00;;;;;;;;;;;;;;;21.90;78.10;96765.91;587139;241;65395;-73
2022/09/10 03:34:28;;;;;;;;;;;;;;;21.90;78.07;96765.91;587139;241;65950;-73
2022/09/10 03:36:56;;;;;;;;;;;;;;;21.91;77.96;96772.88;587124;241;67081;-73
2022/09/10 03:39:23;;;;;;;;;;;;;;;21.91;77.97;96764.05;587148;241;65132;-73
2022/09/10 03:41:52;;;;;;;;;;;;;;;21.91;78.09;96767.52;587148;241;67041;-74
2022/09/10 03:44:19;;;;;;;;;;;;;;;21.91;78.16;96761.37;587160;241;66840;-73
2022/09/10 03:46:49;;;;;;;;;;;;;;;21.91;78.03;96756.03;587185;241;65185;-73
2022/09/10 03:49:17;;;;;;;;;;;;;;;21.89;78.04;96758.97;587116;241;64579;-73
2022/09/10 03:51:45;;;;;;;;;;;;;;;21.91;77.99;96761.37;587144;241;66815;-73
2022/09/10 03:54:13;;;;;;;;;;;;;;;21.91;78.23;96753.35;587139;241;65139;-74
2022/09/10 03:56:42;;;;;;;;;;;;;;;21.90;78.06;96749.06;587153;241;66922;-73
2022/09/10 03:59:12;;;;;;;;;;;;;;;21.91;78.11;96762.17;587145;241;66874;-73
2022/09/10 04:01:40;;;;;;;;;;;;;;;21.90;78.24;96763.23;587189;241;65049;-73
2022/09/10 04:04:07;;;;;;;;;;;;;;;21.90;78.12;96765.91;587188;241;66786;-73
2022/09/10 04:06:36;;;;;;;;;;;;;;;21.90;78.26;96760.55;587147;241;64486;-73
2022/09/10 04:09:04;;;;;;;;;;;;;;;21.90;78.26;96765.91;587182;241;65106;-73
2022/09/10 04:11:32;;;;;;;;;;;;;;;21.90;78.10;96760.55;587214;241;64740;-73
2022/09/10 04:14:00;;;;;;;;;;;;;;;21.90;78.17;96760.55;587129;241;67050;-73
2022/09/10 04:16:28;;;;;;;;;;;;;;;21.90;78.29;96763.23;587181;241;65127;-74
2022/09/10 04:18:55;;;;;;;;;;;;;;;21.90;78.26;96755.20;587134;241;66962;-74
2022/09/10 04:21:23;;;;;;;;;;;;;;;21.91;78.12;96764.84;587158;241;66826;-74
2022/09/10 04:23:55;;;;;;;;;;;;;;;21.90;78.20;96765.91;587209;241;65082;-73
2022/09/10 04:26:22;;;;;;;;;;;;;;;21.91;78.28;96766.73;587180;241;64971;-74
2022/09/10 04:28:50;;;;;;;;;;;;;;;21.90;78.30;96763.23;587151;241;66795;-73
2022/09/10 04:31:18;;;;;;;;;;;;;;;21.90;78.33;96760.55;587204;241;65053;-74
2022/09/10 04:33:45;;;;;;;;;;;;;;;21.91;78.38;96758.70;587168;241;64519;-73
2022/09/10 04:36:14;;;;;;;;;;;;;;;21.90;78.32;96757.09;587192;241;67245;-73
2022/09/10 04:38:43;;;;;;;;;;;;;;;21.90;78.30;96754.41;587188;241;65148;-73
2022/09/10 04:41:14;;;;;;;;;;;;;;;21.90;78.37;96760.55;587185;238;48371;-74
2022/09/10 04:43:42;;;;;;;;;;;;;;;21.90;78.29;96765.11;587156;241;66830;-74
2022/09/10 04:46:10;;;;;;;;;;;;;;;21.90;78.28;96768.58;587177;241;65063;-74
2022/09/10 04:48:39;;;;;;;;;;;;;;;21.90;78.30;96770.47;587175;241;48663;-73
2022/09/10 04:51:07;;;;;;;;;;;;;;;21.89;78.25;96769.67;587138;241;64823;-74
2022/09/10 04:53:36;;;;;;;;;;;;;;;21.89;78.22;96758.97;587119;241;45239;-73
2022/09/10 04:56:04;;;;;;;;;;;;;;;21.91;78.16;96770.20;587173;241;67000;-73
2022/09/10 04:58:33;;;;;;;;;;;;;;;21.90;78.08;96765.91;587172;241;64674;-73
2022/09/10 05:01:01;;;;;;;;;;;;;;;21.90;78.17;96763.23;587167;241;63021;-74
2022/09/10 05:03:30;;;;;;;;;;;;;;;21.90;78.08;96760.55;587180;241;64340;-74
2022/09/10 05:05:58;;;;;;;;;;;;;;;21.90;78.21;96770.47;587182;241;66848;-73
2022/09/10 05:08:25;;;;;;;;;;;;;;;21.90;78.21;96759.77;587156;241;62961;-74
2022/09/10 05:10:55;;;;;;;;;;;;;;;21.90;78.25;96765.11;587140;241;48051;-74
2022/09/10 05:13:23;;;;;;;;;;;;;;;21.90;78.13;96765.11;587177;241;64757;-74
2022/09/10 05:15:51;;;;;;;;;;;;;;;21.90;78.21;96773.14;587162;241;65149;-74
2022/09/10 05:18:21;;;;;;;;;;;;;;;21.90;78.17;96767.79;587187;241;64833;-74
2022/09/10 05:20:49;;;;;;;;;;;;;;;21.90;78.23;96773.14;587146;241;67112;-74
2022/09/10 05:23:16;;;;;;;;;;;;;;;21.89;78.30;96769.67;587154;241;63195;-73
2022/09/10 05:25:44;;;;;;;;;;;;;;;21.89;78.19;96764.32;587168;241;66963;-74
2022/09/10 05:28:12;;;;;;;;;;;;;;;21.90;78.40;96767.79;587131;241;67310;-74
2022/09/10 05:30:40;;;;;;;;;;;;;;;21.89;78.37;96761.64;587203;241;63006;-74
2022/09/10 05:33:07;;;;;;;;;;;;;;;21.89;78.32;96769.67;587149;241;64611;-74
2022/09/10 05:35:35;;;;;;;;;;;;;;;21.90;78.27;96759.77;587158;241;66881;-74
2022/09/10 05:38:03;;;;;;;;;;;;;;;21.90;78.23;96765.11;587143;241;65158;-74
2022/09/10 05:40:32;;;;;;;;;;;;;;;21.89;78.22;96764.32;587086;241;46062;-74
2022/09/10 05:42:59;;;;;;;;;;;;;;;21.89;78.40;96764.32;582030;241;66389;-73
2022/09/10 05:45:27;;;;;;;;;;;;;;;21.89;78.44;96769.67;587170;241;65196;-73
2022/09/10 05:47:56;;;;;;;;;;;;;;;21.90;78.29;96771.26;587138;241;64443;-73
2022/09/10 05:50:24;;;;;;;;;;;;;;;21.90;78.37;96770.47;587150;241;66861;-73
2022/09/10 05:52:52;;;;;;;;;;;;;;;21.89;78.25;96780.38;587139;241;63213;-73
2022/09/10 05:55:20;;;;;;;;;;;;;;;21.89;78.27;96772.34;587209;241;67191;-73
2022/09/10 05:57:48;;;;;;;;;;;;;;;21.89;78.40;96785.73;587145;241;66836;-73
2022/09/10 06:00:17;;;;;;;;;;;;;;;21.89;78.45;96788.40;587180;241;45110;-73
2022/09/10 06:02:47;;;;;;;;;;;;;;;21.89;78.36;96785.73;587060;241;46692;-74
2022/09/10 06:05:22;;;;;;;;;;;;;;;21.89;78.41;96785.73;586413;241;47898;-73
2022/09/10 06:07:50;;;;;;;;;;;;;;;21.89;78.37;96788.40;587168;241;62803;-73
2022/09/10 06:10:18;;;;;;;;;;;;;;;21.89;78.45;96791.08;587236;241;66941;-73
2022/09/10 06:12:47;;;;;;;;;;;;;;;21.88;78.32;96794.84;587127;241;66891;-73
2022/09/10 06:15:15;;;;;;;;;;;;;;;21.88;79.49;96805.55;587157;241;65029;-74
2022/09/10 06:17:43;;;;;;;;;;;;;;;21.87;77.98;96801.25;587137;241;66953;-73
2022/09/10 06:20:12;;;;;;;;;;;;;;;21.88;77.91;96802.87;587133;241;46625;-73
2022/09/10 06:22:41;;;;;;;;;;;;;;;21.89;77.99;96807.13;587241;241;45228;-73
2022/09/10 06:25:12;;;;;;;;;;;;;;;21.90;77.77;96807.92;587119;241;66261;-73
2022/09/10 06:27:40;;;;;;;;;;;;;;;21.90;77.57;96803.36;587182;241;64522;-73
2022/09/10 06:30:09;;;;;;;;;;;;;;;21.91;77.38;96804.98;587165;241;65015;-73
2022/09/10 06:32:38;;;;;;;;;;;;;;;21.91;77.67;96799.63;587160;241;48199;-74
2022/09/10 06:35:06;;;;;;;;;;;;;;;21.92;77.60;96803.88;587191;241;64103;-73
2022/09/10 06:37:34;;;;;;;;;;;;;;;21.93;77.69;96805.50;587221;241;63069;-73
2022/09/10 06:40:03;;;;;;;;;;;;;;;21.94;77.69;96811.64;587147;241;47105;-74
2022/09/10 06:42:31;;;;;;;;;;;;;;;21.93;77.92;96813.53;587146;241;66752;-73
2022/09/10 06:45:10;;;;;;;;;;;;;;;21.95;77.98;96821.25;573623;246;46390;-73
2022/09/10 06:47:42;;;;;;;;;;;;;;;21.93;78.02;96821.55;586832;241;48373;-74
2022/09/10 06:50:10;;;;;;;;;;;;;;;21.95;78.04;96826.61;587199;241;64511;-73
2022/09/10 06:52:39;;;;;;;;;;;;;;;21.94;78.12;96825.81;587157;241;64987;-73
2022/09/10 06:55:09;;;;;;;;;;;;;;;21.94;78.34;96817.78;587198;241;46257;-73
2022/09/10 06:57:39;;;;;;;;;;;;;;;21.95;78.48;96814.02;586778;241;47927;-73
2022/09/10 07:00:07;;;;;;;;;;;;;;;21.95;78.63;96810.55;587152;241;62957;-73
2022/09/10 07:02:36;;;;;;;;;;;;;;;21.95;78.68;96803.31;587127;241;66661;-73
2022/09/10 07:05:03;;;;;;;;;;;;;;;21.95;78.81;96805.99;587168;241;64833;-73
2022/09/10 07:07:31;;;;;;;;;;;;;;;21.95;78.70;96795.29;587111;241;63055;-73
2022/09/10 07:10:00;;;;;;;;;;;;;;;21.95;78.68;96797.97;587133;241;67281;-73
2022/09/10 07:12:27;;;;;;;;;;;;;;;21.95;78.80;96797.97;587126;241;64854;-73
2022/09/10 07:14:55;;;;;;;;;;;;;;;21.97;78.84;96802.25;587133;241;65106;-73
2022/09/10 07:17:23;;;;;;;;;;;;;;;21.97;78.88;96796.91;587181;241;67048;-73
2022/09/10 07:19:50;;;;;;;;;;;;;;;21.97;78.87;96808.40;587109;241;64634;-74
2022/09/10 07:22:20;;;;;;;;;;;;;;;21.97;78.91;96813.75;587006;241;47281;-73
2022/09/10 07:24:50;;;;;;;;;;;;;;;21.97;78.90;96803.05;587170;241;64434;-73
2022/09/10 07:27:19;;;;;;;;;;;;;;;21.98;78.90;96806.52;585524;241;47790;-74
2022/09/10 07:29:46;;;;;;;;;;;;;;;21.98;78.96;96795.81;587159;241;65029;-73
2022/09/10 07:32:15;;;;;;;;;;;;;;;21.98;78.92;96799.28;587109;241;46143;-73
2022/09/10 07:34:46;;;;;;;;;;;;;;;21.98;78.97;96790.47;587133;241;64748;-74
2022/09/10 07:37:18;;;;;;;;;;;;;;;21.98;78.96;96783.23;587177;241;62826;-74
2022/09/10 07:39:44;;;;;;;;;;;;;;;21.98;78.94;96777.87;587007;241;67386;-74
2022/09/10 07:42:13;;;;;;;;;;;;;;;21.99;78.93;96784.02;587173;241;64917;-74
2022/09/10 07:44:40;;;;;;;;;;;;;;;21.99;78.85;96792.05;587182;241;62848;-73
2022/09/10 07:47:08;;;;;;;;;;;;;;;21.98;78.89;96793.93;587162;241;64825;-73
2022/09/10 07:49:37;;;;;;;;;;;;;;;21.99;78.86;96800.90;587166;241;65448;-73
2022/09/10 07:52:06;;;;;;;;;;;;;;;21.98;78.95;96804.63;587160;241;65037;-74
2022/09/10 07:54:35;;;;;;;;;;;;;;;21.99;78.94;96794.72;586908;241;46994;-74
2022/09/10 07:57:04;;;;;;;;;;;;;;;21.99;78.94;96795.55;587161;241;67703;-73
2022/09/10 07:59:32;;;;;;;;;;;;;;;22.00;78.96;96801.69;581966;241;68440;-73
2022/09/10 08:02:01;;;;;;;;;;;;;;;21.99;79.16;96795.55;587168;241;48401;-73
2022/09/10 08:04:32;;;;;;;;;;;;;;;22.00;79.06;96788.31;587145;241;67015;-73
2022/09/10 08:06:59;;;;;;;;;;;;;;;21.99;79.06;96784.84;587144;241;63166;-73
2022/09/10 08:09:27;;;;;;;;;;;;;;;22.00;79.06;96774.94;587139;241;67087;-73
2022/09/10 08:11:55;;;;;;;;;;;;;;;21.99;79.09;96778.67;587199;241;64863;-73
2022/09/10 08:14:23;;;;;;;;;;;;;;;22.00;78.94;96780.28;587164;241;65485;-73
2022/09/10 08:16:53;;;;;;;;;;;;;;;22.00;78.96;96781.08;587167;241;66881;-73
2022/09/10 08:19:21;;;;;;;;;;;;;;;22.01;78.84;96781.87;586344;241;64802;-73
2022/09/10 08:21:48;;;;;;;;;;;;;;;22.01;78.88;96784.55;585198;242;65114;-73
2022/09/10 08:24:18;;;;;;;;;;;;;;;22.00;78.85;96781.08;585169;242;48959;-73
2022/09/10 08:26:48;;;;;;;;;;;;;;;22.00;78.85;96775.72;585221;242;66707;-74
2022/09/10 08:29:15;;;;;;;;;;;;;;;22.01;78.84;96771.16;585211;242;65083;-74
2022/09/10 08:31:43;;;;;;;;;;;;;;;22.01;78.84;96771.95;585212;242;67240;-73
2022/09/10 08:34:18;;;;;;;;;;;;;;;22.01;78.78;96771.16;585192;240;48225;-73
2022/09/10 08:36:48;;;;;;;;;;;;;;;22.00;78.80;96761.55;585214;241;47046;-73
2022/09/10 08:39:15;;;;;;;;;;;;;;;22.00;78.84;96770.37;585209;242;67326;-74
2022/09/10 08:41:51;;;;;;;;;;;;;;;22.02;78.85;96762.08;585227;242;65072;-74
2022/09/10 08:44:38;;;;;;;;;;;;;;;22.01;78.90;96758.58;585266;242;45242;-74
2022/09/10 08:47:12;;;;;;;;;;;;;;;22.01;78.90;96755.11;585167;242;67360;-73
2022/09/10 08:49:47;;;;;;;;;;;;;;;22.01;79.00;96757.78;585232;242;67080;-74
2022/09/10 08:52:20;;;;;;;;;;;;;;;22.01;79.03;96750.55;585215;242;64889;-74
2022/09/10 08:54:51;;;;;;;;;;;;;;;22.02;79.05;96751.38;585241;242;67291;-73
2022/09/10 08:57:20;;;;;;;;;;;;;;;22.01;79.11;96752.44;585080;242;65023;-74
2022/09/10 08:59:51;;;;;;;;;;;;;;;22.01;79.17;96747.08;584938;242;65327;-74
2022/09/10 09:02:36;;;;;;;;;;;;;;;22.02;79.23;96738.78;585209;242;67176;-73
2022/09/10 09:05:16;;;;;;;;;;;;;;;22.02;79.27;96743.34;585057;240;64350;-73
2022/09/10 09:07:45;;;;;;;;;;;;;;;22.00;79.14;96730.23;585200;242;63107;-74
2022/09/10 09:10:15;;;;;;;;;;;;;;;22.02;79.15;96732.64;585232;242;66833;-74
2022/09/10 09:12:47;;;;;;;;;;;;;;;22.01;79.05;96731.03;581503;242;67304;-73
2022/09/10 09:15:19;;;;;;;;;;;;;;;22.02;79.04;96733.43;582181;242;65524;-74
2022/09/10 09:17:49;;;;;;;;;;;;;;;22.01;78.99;96721.11;585084;242;67272;-73
2022/09/10 09:20:18;;;;;;;;;;;;;;;22.02;78.86;96721.94;586579;241;64906;-74
2022/09/10 09:22:51;;;;;;;;;;;;;;;22.01;78.76;96718.44;587101;241;65301;-74
2022/09/10 09:25:22;;;;;;;;;;;;;;;22.03;78.81;96704.79;587118;240;46795;-74
2022/09/10 09:27:52;;;;;;;;;;;;;;;22.02;78.67;96698.64;587123;241;65899;-73
2022/09/10 09:30:21;;;;;;;;;;;;;;;22.03;78.73;96707.47;581987;241;64066;-73
2022/09/10 09:32:50;;;;;;;;;;;;;;;22.03;78.68;96699.44;587132;241;66915;-74
2022/09/10 09:35:33;;;;;;;;;;;;;;;22.02;78.67;96706.67;587132;241;67177;-73
2022/09/10 09:38:10;;;;;;;;;;;;;;;22.03;78.65;96702.11;587125;241;63101;-74
2022/09/10 09:40:48;;;;;;;;;;;;;;;22.04;78.72;96695.67;587165;241;65284;-73
2022/09/10 09:43:33;;;;;;;;;;;;;;;22.04;78.67;96692.99;587127;241;65217;-73
2022/09/10 09:46:01;;;;;;;;;;;;;;;22.02;78.62;96681.80;587135;241;63299;-74
2022/09/10 09:48:32;;;;;;;;;;;;;;;22.03;78.68;96688.73;587120;241;65070;-74
2022/09/10 09:51:01;;;;;;;;;;;;;;;22.04;78.75;96684.97;587140;241;67275;-73
2022/09/10 09:53:29;;;;;;;;;;;;;;;22.03;78.76;96689.53;587129;241;62994;-74
2022/09/10 09:55:59;;;;;;;;;;;;;;;22.04;78.74;96690.31;587160;241;67449;-74
2022/09/10 09:58:34;;;;;;;;;;;;;;;22.03;78.77;96686.06;587145;241;65104;-74
2022/09/10 10:01:06;;;;;;;;;;;;;;;22.03;78.79;96680.70;586948;241;65222;-74
2022/09/10 10:03:51;;;;;;;;;;;;;;;22.04;78.87;96676.94;587097;241;67356;-73
2022/09/10 10:06:20;;;;;;;;;;;;;;;22.04;79.00;96680.41;587090;241;65013;-73
2022/09/10 10:08:55;;;;;;;;;;;;;;;22.04;79.05;96675.05;587164;241;63051;-74
2022/09/10 10:11:23;;;;;;;;;;;;;;;22.05;78.99;96673.20;587164;241;67423;-74
2022/09/10 10:13:50;;;;;;;;;;;;;;;22.04;79.00;96676.94;587148;241;67225;-73
2022/09/10 10:16:20;;;;;;;;;;;;;;;22.03;79.00;96684.17;587139;241;65113;-74
2022/09/10 10:18:47;;;;;;;;;;;;;;;22.05;78.93;96678.55;586777;241;67424;-73
2022/09/10 10:21:17;;;;;;;;;;;;;;;22.04;78.99;96675.05;585235;242;66795;-74
2022/09/10 10:23:44;;;;;;;;;;;;;;;22.04;78.94;96671.59;585221;242;63809;-74
2022/09/10 10:26:22;;;;;;;;;;;;;;;22.04;78.98;96668.91;585213;242;65269;-74
2022/09/10 10:28:51;;;;;;;;;;;;;;;22.04;78.83;96664.34;585182;242;67280;-74
2022/09/10 10:31:19;;;;;;;;;;;;;;;22.05;78.64;96668.64;585198;242;63693;-73
2022/09/10 10:33:51;;;;;;;;;;;;;;;22.05;78.63;96663.28;585212;242;64911;-74
2022/09/10 10:36:23;;;;;;;;;;;;;;;22.06;78.61;96661.41;585063;242;67053;-74
2022/09/10 10:39:01;;;;;;;;;;;;;;;22.06;78.76;96661.41;584538;242;65188;-74
2022/09/10 10:41:30;;;;;;;;;;;;;;;22.06;78.74;96664.08;585181;242;67328;-73
2022/09/10 10:44:18;;;;;;;;;;;;;;;22.06;78.65;96656.05;585194;242;66726;-73
2022/09/10 10:46:52;;;;;;;;;;;;;;;22.06;78.71;96653.38;585003;242;62898;-73
2022/09/10 10:49:24;;;;;;;;;;;;;;;22.05;78.66;96639.20;585179;242;66936;-74
2022/09/10 10:51:55;;;;;;;;;;;;;;;22.06;78.69;96643.46;585217;242;67012;-73
2022/09/10 10:54:27;;;;;;;;;;;;;;;22.05;78.64;96641.88;585094;242;65132;-74
2022/09/10 10:57:00;;;;;;;;;;;;;;;22.06;78.67;96640.78;585239;242;65256;-73
2022/09/10 10:59:29;;;;;;;;;;;;;;;22.05;78.66;96649.91;585218;242;66912;-74
2022/09/10 11:02:04;;;;;;;;;;;;;;;22.06;78.66;96645.34;585207;242;65004;-74
2022/09/10 11:04:33;;;;;;;;;;;;;;;22.06;78.72;96642.67;584925;242;67127;-74
2022/09/10 11:07:12;;;;;;;;;;;;;;;22.06;78.74;96646.14;585088;242;66853;-73
2022/09/10 11:09:41;;;;;;;;;;;;;;;22.06;78.71;96648.02;585234;242;65314;-73
2022/09/10 11:12:11;;;;;;;;;;;;;;;22.07;78.82;96644.25;585226;242;67437;-74
2022/09/10 11:14:40;;;;;;;;;;;;;;;22.06;78.86;96645.34;585010;242;67180;-73
2022/09/10 11:17:21;;;;;;;;;;;;;;;22.07;78.94;96646.93;581438;242;64927;-73
2022/09/10 11:19:50;;;;;;;;;;;;;;;22.07;78.91;96646.93;584981;242;67242;-74
2022/09/10 11:22:22;;;;;;;;;;;;;;;22.07;78.92;96644.25;585022;242;65212;-73
2022/09/10 11:24:52;;;;;;;;;;;;;;;22.06;78.88;96638.11;585215;242;64954;-73
2022/09/10 11:27:36;;;;;;;;;;;;;;;22.06;78.93;96638.11;584878;242;67244;-73
2022/09/10 11:30:05;;;;;;;;;;;;;;;22.07;78.88;96637.05;585172;242;64857;-74
2022/09/10 11:32:38;;;;;;;;;;;;;;;22.08;78.85;96635.16;585201;242;65273;-73
2022/09/10 11:35:22;;;;;;;;;;;;;;;22.08;78.91;96635.16;585197;242;67392;-73
2022/09/10 11:37:53;;;;;;;;;;;;;;;22.07;78.90;96629.02;585184;242;67002;-73
2022/09/10 11:40:23;;;;;;;;;;;;;;;22.08;78.95;96621.78;585152;242;63009;-73
2022/09/10 11:42:52;;;;;;;;;;;;;;;22.07;78.90;96617.49;581464;242;67307;-73
2022/09/10 11:45:21;;;;;;;;;;;;;;;22.08;78.89;96611.08;585155;242;67314;-73
2022/09/10 11:47:55;;;;;;;;;;;;;;;22.07;78.87;96610.28;584944;242;65275;-73
2022/09/10 11:50:30;;;;;;;;;;;;;;;22.08;78.84;96616.43;585161;242;67099;-73
2022/09/10 11:52:58;;;;;;;;;;;;;;;22.07;78.90;96615.64;585191;242;67175;-73
2022/09/10 11:55:33;;;;;;;;;;;;;;;22.08;78.84;96619.11;585221;242;63020;-73
2022/09/10 11:58:19;;;;;;;;;;;;;;;22.08;78.80;96611.87;584921;242;67177;-73
2022/09/10 12:00:48;;;;;;;;;;;;;;;22.08;78.91;96600.38;585192;242;67055;-73
2022/09/10 12:03:29;;;;;;;;;;;;;;;22.08;78.85;96598.48;585045;242;65124;-74
2022/09/10 12:05:58;;;;;;;;;;;;;;;22.08;78.89;96589.67;585191;242;64827;-74
2022/09/10 12:08:33;;;;;;;;;;;;;;;22.08;78.84;96589.67;585111;242;66931;-74
2022/09/10 12:11:03;;;;;;;;;;;;;;;22.08;78.83;96595.02;585177;242;62910;-73
2022/09/10 12:13:34;;;;;;;;;;;;;;;22.08;78.90;96593.13;585222;242;67531;-73
2022/09/10 12:16:03;;;;;;;;;;;;;;;22.09;78.85;96588.58;585201;242;65169;-73
2022/09/10 12:18:32;;;;;;;;;;;;;;;22.09;78.77;96585.90;585098;242;62944;-74
2022/09/10 12:21:01;;;;;;;;;;;;;;;22.08;78.76;96585.11;584496;242;67398;-73
2022/09/10 12:23:36;;;;;;;;;;;;;;;22.10;78.79;96576.80;585090;242;67585;-73
2022/09/10 12:26:05;;;;;;;;;;;;;;;22.09;78.90;96575.19;585218;242;64996;-74
2022/09/10 12:28:48;;;;;;;;;;;;;;;22.08;78.87;96568.27;585286;242;67167;-74
2022/09/10 12:31:16;;;;;;;;;;;;;;;22.10;78.82;96571.45;585261;242;46844;-73
2022/09/10 12:33:45;;;;;;;;;;;;;;;22.09;78.81;96567.16;585217;242;65140;-73
2022/09/10 12:36:14;;;;;;;;;;;;;;;22.09;78.79;96561.81;585162;242;67253;-73
2022/09/10 12:38:46;;;;;;;;;;;;;;;22.08;78.80;96558.34;585224;242;67076;-73
2022/09/10 12:41:15;;;;;;;;;;;;;;;22.09;78.86;96551.11;585258;242;62865;-73
2022/09/10 12:43:44;;;;;;;;;;;;;;;22.09;78.92;96540.41;585264;242;66907;-73
2022/09/10 12:46:15;;;;;;;;;;;;;;;22.09;78.93;96541.20;585259;242;65010;-74
2022/09/10 12:48:44;;;;;;;;;;;;;;;22.10;78.87;96536.66;585232;242;63568;-73
2022/09/10 12:51:20;;;;;;;;;;;;;;;22.10;78.90;96540.13;585260;242;65048;-74
2022/09/10 12:53:49;;;;;;;;;;;;;;;22.10;78.87;96524.08;585280;242;66820;-74
2022/09/10 12:56:20;;;;;;;;;;;;;;;22.10;78.91;96516.05;585246;242;65196;-73
2022/09/10 12:58:53;;;;;;;;;;;;;;;22.09;78.94;96516.33;585257;242;65303;-73
2022/09/10 13:01:38;;;;;;;;;;;;;;;22.10;78.90;96517.93;584923;242;65243;-74
2022/09/10 13:04:07;;;;;;;;;;;;;;;22.11;78.81;96522.19;585244;242;65270;-74